Time;durP1;ratioP1;P1;durP2;ratioP2;P2;SDS_P1;SDS_P2;PMS_P1;PMS_P2;Temp;Humidity;BMP_temperature;BMP_pressure;BME280_temperature;BME280_humidity;BME280_pressure;Samples;Min_cycle;Max_cycle;Signal;HPM_P1;HPM_P2
2024/01/01 00:06:11;;;;;;;4.60;3.55;;;;;;;6.01;74.06;99979.72;15706122;28;20037;-46
2024/01/01 00:13:48;;;;;;;3.53;2.92;;;;;;;6.03;74.24;99975.03;15737163;28;20039;-45
2024/01/01 00:21:21;;;;;;;1.77;1.67;;;;;;;5.97;74.55;99974.97;15740471;28;20068;-46
2024/01/01 00:28:56;;;;;;;1.50;1.40;;;;;;;6.17;73.96;99983.06;15735964;28;20045;-49
2024/01/01 00:36:29;;;;;;;0.57;0.57;;;;;;;6.13;73.47;99977.31;15714819;28;20037;-47
2024/01/01 00:44:04;;;;;;;1.98;1.83;;;;;;;6.19;73.03;99986.34;15717473;28;20470;-51
2024/01/01 00:51:38;;;;;;;1.52;1.42;;;;;;;5.94;74.30;99986.88;15718976;28;20040;-49
2024/01/01 00:59:13;;;;;;;;;;;;;;;6.08;73.37;99990.41;15692935;28;20043;-51
2024/01/01 01:06:46;;;;;;;0.17;0.17;;;;;;;5.93;73.80;99993.22;15709518;28;19953;-50
2024/01/01 01:14:21;;;;;;;6.60;1.10;;;;;;;5.67;74.90;100001.03;15723481;28;20400;-50
2024/01/01 01:21:56;;;;;;;0.35;0.35;;;;;;;5.74;74.27;99988.59;15740882;28;20135;-48
2024/01/01 01:29:30;;;;;;;1.98;0.77;;;;;;;5.57;75.81;99983.59;15706234;28;20071;-50
2024/01/01 01:37:04;;;;;;;1.20;1.00;;;;;;;5.72;74.27;99986.13;15713619;28;20555;-48
2024/01/01 01:44:42;;;;;;;1.05;1.05;;;;;;;5.56;75.03;99976.63;15712579;28;20035;-48
2024/01/01 01:52:16;;;;;;;0.20;0.20;;;;;;;5.53;74.82;99978.84;15715004;28;20075;-49
2024/01/01 01:59:56;;;;;;;1.05;0.90;;;;;;;5.55;74.43;99967.00;15714780;28;20040;-49
2024/01/01 02:07:30;;;;;;;0.60;0.60;;;;;;;5.52;74.54;99966.56;15707415;28;20137;-53
2024/01/01 02:15:06;;;;;;;0.32;0.32;;;;;;;5.82;73.27;99964.44;15710954;28;20477;-52
2024/01/01 02:22:42;;;;;;;0.00;0.00;;;;;;;5.73;73.15;99973.63;15693804;28;20064;-48
2024/01/01 02:30:18;;;;;;;0.30;0.30;;;;;;;5.53;74.47;99976.19;15727993;28;20106;-49
2024/01/01 02:37:51;;;;;;;0.95;0.90;;;;;;;5.65;73.80;99971.97;15712314;28;20044;-48
2024/01/01 02:45:28;;;;;;;1.17;1.17;;;;;;;5.43;73.71;99967.72;15704822;28;20048;-48
2024/01/01 02:53:02;;;;;;;0.75;0.75;;;;;;;5.38;73.67;99963.00;15729267;28;20041;-49
2024/01/01 03:00:37;;;;;;;0.28;0.28;;;;;;;5.54;73.30;99961.84;15723494;28;20440;-50
2024/01/01 03:08:11;;;;;;;0.55;0.55;;;;;;;5.58;72.72;99947.94;15721716;28;20051;-52
2024/01/01 03:15:47;;;;;;;0.45;0.45;;;;;;;5.30;74.34;99963.97;15714588;28;20043;-50
2024/01/01 03:23:20;;;;;;;0.43;0.43;;;;;;;5.61;73.09;99963.53;15717793;28;20544;-50
2024/01/01 03:30:55;;;;;;;0.75;0.75;;;;;;;5.37;73.71;99956.03;15716554;28;20485;-50
2024/01/01 03:38:29;;;;;;;0.20;0.20;;;;;;;5.07;74.45;99955.41;15726691;28;20048;-50
2024/01/01 03:46:04;;;;;;;0.00;0.00;;;;;;;5.01;74.93;99951.69;15703955;28;20043;-51
2024/01/01 03:53:38;;;;;;;0.25;0.15;;;;;;;4.88;75.07;99951.59;15713717;28;20063;-54
2024/01/01 04:01:15;;;;;;;1.45;1.35;;;;;;;4.84;74.97;99950.31;15716108;28;20068;-52
2024/01/01 04:08:50;;;;;;;0.20;0.20;;;;;;;4.80;74.99;99949.06;15742063;28;20040;-51
2024/01/01 04:16:26;;;;;;;2.53;1.65;;;;;;;4.92;74.69;99946.72;15720297;28;20045;-49
2024/01/01 04:23:59;;;;;;;0.13;0.13;;;;;;;5.26;73.71;99948.59;15743851;28;20068;-48
2024/01/01 04:31:39;;;;;;;1.15;1.05;;;;;;;5.46;72.75;99954.88;15715916;28;20098;-52
2024/01/01 04:39:13;;;;;;;0.45;0.45;;;;;;;5.22;73.40;99956.16;15715910;28;20094;-49
2024/01/01 04:46:49;;;;;;;0.08;0.08;;;;;;;5.42;73.52;99944.81;15731431;28;20094;-51
2024/01/01 04:54:24;;;;;;;0.43;0.43;;;;;;;5.33;74.05;99944.97;15726552;28;20076;-50
2024/01/01 05:02:01;;;;;;;0.05;0.05;;;;;;;5.39;73.82;99943.34;15728575;28;20040;-51
2024/01/01 05:09:37;;;;;;;0.65;0.63;;;;;;;5.48;73.58;99941.34;15726529;28;20049;-51
2024/01/01 05:17:12;;;;;;;;;;;;;;;5.67;72.54;99937.97;15728947;28;20048;-51
2024/01/01 05:24:45;;;;;;;1.45;1.02;;;;;;;5.66;72.80;99930.19;15726360;28;20351;-51
2024/01/01 05:32:20;;;;;;;0.45;0.45;;;;;;;5.37;74.18;99930.25;15725923;28;20070;-50
2024/01/01 05:39:54;;;;;;;0.40;0.40;;;;;;;5.69;73.29;99932.44;15727717;28;20041;-50
2024/01/01 05:47:30;;;;;;;0.52;0.52;;;;;;;5.50;74.51;99937.50;15727804;28;20102;-52
2024/01/01 05:55:05;;;;;;;1.48;1.02;;;;;;;5.70;73.65;99937.56;15731707;28;20066;-49
2024/01/01 06:02:44;;;;;;;0.30;0.30;;;;;;;5.63;73.97;99939.38;15720131;28;20072;-52
2024/01/01 06:10:18;;;;;;;0.00;0.00;;;;;;;5.92;73.02;99946.28;15732795;28;20456;-52
2024/01/01 06:17:53;;;;;;;1.23;0.28;;;;;;;5.99;72.53;99947.13;15727696;28;20044;-51
2024/01/01 06:25:26;;;;;;;0.00;0.00;;;;;;;5.88;72.79;99943.19;15709459;28;20040;-50
2024/01/01 06:33:03;;;;;;;0.00;0.00;;;;;;;5.95;72.99;99937.09;15726130;28;20621;-51
2024/01/01 06:40:36;;;;;;;1.75;0.22;;;;;;;6.02;72.87;99936.09;15727109;28;20417;-47
2024/01/01 06:48:11;;;;;;;0.70;0.70;;;;;;;6.30;71.65;99937.81;15724504;28;20037;-49
2024/01/01 06:55:45;;;;;;;0.47;0.43;;;;;;;6.21;71.79;99945.16;15718301;28;20091;-48
2024/01/01 07:03:19;;;;;;;;;;;;;;;6.35;71.88;99962.00;15710961;28;20094;-50
2024/01/01 07:10:57;;;;;;;0.47;0.47;;;;;;;6.25;71.88;99965.06;15718109;28;19927;-48
2024/01/01 07:18:32;;;;;;;0.00;0.00;;;;;;;6.30;71.55;99962.59;15727121;28;20049;-49
2024/01/01 07:26:06;;;;;;;0.80;0.70;;;;;;;6.07;71.30;99976.28;15722745;28;20064;-47
2024/01/01 07:33:42;;;;;;;0.13;0.13;;;;;;;6.22;71.21;99972.63;15731937;28;20044;-51
2024/01/01 07:41:15;;;;;;;0.10;0.10;;;;;;;5.82;72.89;99970.59;15733842;28;20113;-46
2024/01/01 07:48:52;;;;;;;0.00;0.00;;;;;;;5.53;74.22;99979.66;15744457;28;20044;-47
2024/01/01 07:56:25;;;;;;;1.13;1.02;;;;;;;5.91;73.35;99978.41;15745836;28;20489;-46
2024/01/01 08:04:01;;;;;;;0.03;0.03;;;;;;;6.13;72.78;99986.13;15720484;28;20127;-53
2024/01/01 08:11:35;;;;;;;0.00;0.00;;;;;;;6.61;71.92;99995.88;15728935;28;20373;-50
2024/01/01 08:19:10;;;;;;;0.22;0.22;;;;;;;6.61;72.04;99993.22;15728799;28;20036;-52
2024/01/01 08:26:43;;;;;;;4.57;2.63;;;;;;;6.69;71.31;100000.22;15716472;28;20083;-50
2024/01/01 08:34:20;;;;;;;0.90;0.57;;;;;;;7.09;70.47;100009.91;15725619;28;20068;-50
2024/01/01 08:41:54;;;;;;;0.20;0.20;;;;;;;6.98;71.34;100013.16;15708769;28;20452;-53
2024/01/01 08:49:29;;;;;;;0.00;0.00;;;;;;;7.01;70.87;100018.09;15709605;28;20576;-54
2024/01/01 08:57:04;;;;;;;0.10;0.10;;;;;;;6.94;71.14;100022.59;15705621;28;20104;-52
2024/01/01 09:04:39;;;;;;;0.03;0.03;;;;;;;6.97;70.84;100019.53;15717244;28;20032;-48
2024/01/01 09:12:13;;;;;;;0.28;0.17;;;;;;;6.78;71.86;100015.81;15717153;28;20044;-49
2024/01/01 09:19:48;;;;;;;0.17;0.17;;;;;;;6.99;71.18;100028.13;15703381;28;20048;-53
2024/01/01 09:27:22;;;;;;;0.00;0.00;;;;;;;7.15;69.89;100027.75;15708192;28;20547;-48
2024/01/01 09:34:56;;;;;;;0.00;0.00;;;;;;;7.09;69.77;100023.22;15713400;28;20124;-52
2024/01/01 09:42:30;;;;;;;0.00;0.00;;;;;;;6.96;69.99;100025.06;15706040;28;20041;-48
2024/01/01 09:50:05;;;;;;;1.65;0.43;;;;;;;7.22;68.80;100037.59;15719153;28;20050;-53
2024/01/01 09:57:39;;;;;;;0.20;0.20;;;;;;;7.18;69.10;100029.19;15694740;28;20067;-49
2024/01/01 10:05:17;;;;;;;0.00;0.00;;;;;;;7.47;68.56;100021.78;15722500;28;20048;-50
2024/01/01 10:12:52;;;;;;;0.38;0.10;;;;;;;7.40;68.64;100019.09;15721925;28;20123;-47
2024/01/01 10:20:26;;;;;;;0.00;0.00;;;;;;;7.41;69.03;100018.06;15721448;28;20041;-47
2024/01/01 10:28:02;;;;;;;13.88;0.52;;;;;;;7.34;69.20;100019.94;15674095;28;20076;-47
2024/01/01 10:35:39;;;;;;;0.00;0.00;;;;;;;7.16;70.02;100026.72;15692263;28;20055;-48
2024/01/01 10:43:13;;;;;;;0.00;0.00;;;;;;;7.60;68.97;100027.06;15723879;28;20033;-48
2024/01/01 10:51:00;;;;;;;2.53;0.47;;;;;;;7.47;69.61;100025.25;15723980;28;20048;-49
2024/01/01 10:58:45;;;;;;;0.00;0.00;;;;;;;7.81;68.22;100023.34;15714349;28;20033;-47
2024/01/01 11:06:27;;;;;;;0.10;0.10;;;;;;;7.90;67.97;100022.09;15731555;28;20048;-52
2024/01/01 11:14:00;;;;;;;0.10;0.10;;;;;;;8.06;68.39;100020.78;15727575;28;20472;-48
2024/01/01 11:21:35;;;;;;;0.10;0.10;;;;;;;8.22;67.84;100017.66;15718961;28;20078;-47
2024/01/01 11:29:28;;;;;;;0.10;0.10;;;;;;;8.03;67.81;100019.38;15735165;28;20116;-52
2024/01/01 11:37:02;;;;;;;0.00;0.00;;;;;;;8.04;67.51;100021.00;15700561;28;20041;-49
2024/01/01 11:44:36;;;;;;;0.00;0.00;;;;;;;8.24;66.98;100023.59;15725800;28;20037;-50
2024/01/01 11:52:12;;;;;;;;;;;;;;;8.32;66.71;100020.69;15719618;28;20090;-49
2024/01/01 11:59:46;;;;;;;0.22;0.22;;;;;;;8.57;65.97;100018.09;15726646;28;19928;-46
2024/01/01 12:07:29;;;;;;;0.32;0.32;;;;;;;8.70;65.63;100006.50;15709698;28;20044;-52
2024/01/01 12:15:10;;;;;;;0.53;0.53;;;;;;;8.55;65.61;100011.34;15708253;28;20029;-50
2024/01/01 12:22:45;;;;;;;0.00;0.00;;;;;;;8.74;64.65;100015.75;15724152;28;20056;-47
2024/01/01 12:30:33;;;;;;;0.08;0.08;;;;;;;8.68;66.62;100013.94;15721474;28;20059;-47
2024/01/01 12:38:07;;;;;;;0.00;0.00;;;;;;;8.27;68.23;100011.66;15688908;28;20053;-50
2024/01/01 12:45:40;;;;;;;0.25;0.25;;;;;;;8.13;69.19;99997.53;15685993;22;20052;-55
2024/01/01 12:53:15;;;;;;;0.30;0.30;;;;;;;8.15;68.39;99985.59;15614014;28;20889;-52
2024/01/01 13:00:48;;;;;;;0.08;0.08;;;;;;;8.22;67.98;99984.75;15649384;28;20528;-48
2024/01/01 13:08:24;;;;;;;0.20;0.20;;;;;;;8.43;67.16;99989.78;15661001;28;20426;-48
2024/01/01 13:15:58;;;;;;;0.00;0.00;;;;;;;8.43;66.39;99992.47;15679907;28;20091;-49
2024/01/01 13:23:34;;;;;;;1.58;0.40;;;;;;;8.31;66.58;99997.66;15658185;28;20421;-49
2024/01/01 13:31:08;;;;;;;2.35;1.55;;;;;;;8.47;66.12;99993.69;15678125;28;20068;-52
2024/01/01 13:38:45;;;;;;;0.00;0.00;;;;;;;8.52;66.12;99988.50;15678556;28;20040;-49
2024/01/01 13:46:19;;;;;;;0.00;0.00;;;;;;;8.67;64.48;99986.38;15660919;28;20060;-47
2024/01/01 13:53:54;;;;;;;;;;;;;;;8.97;63.44;99983.06;15681291;28;20534;-53
2024/01/01 14:01:34;;;;;;;0.05;0.05;;;;;;;8.72;63.80;99982.19;15667868;28;20006;-52
2024/01/01 14:09:09;;;;;;;0.00;0.00;;;;;;;8.90;64.17;99998.34;15646162;28;20493;-50
2024/01/01 14:16:43;;;;;;;0.10;0.10;;;;;;;8.72;63.98;100008.97;15647873;28;20540;-48
2024/01/01 14:24:20;;;;;;;0.45;0.40;;;;;;;8.79;64.34;100004.41;15668770;28;20051;-51
2024/01/01 14:31:56;;;;;;;0.00;0.00;;;;;;;8.87;64.38;100009.50;15670090;28;20052;-51
2024/01/01 14:39:31;;;;;;;0.00;0.00;;;;;;;8.82;63.95;100018.16;15677224;28;20052;-53
2024/01/01 14:47:06;;;;;;;0.00;0.00;;;;;;;9.07;62.85;100012.81;15649043;28;20041;-48
2024/01/01 14:54:43;;;;;;;0.00;0.00;;;;;;;8.76;63.05;100005.63;15687526;28;20048;-52
2024/01/01 15:02:19;;;;;;;0.00;0.00;;;;;;;8.92;62.80;100041.78;15676960;28;20048;-52
2024/01/01 15:09:54;;;;;;;0.00;0.00;;;;;;;8.78;63.52;100051.75;15664496;28;20041;-48
2024/01/01 15:17:29;;;;;;;0.20;0.20;;;;;;;8.58;63.88;100049.19;15680806;28;20075;-49
2024/01/01 15:25:05;;;;;;;0.25;0.25;;;;;;;8.40;65.45;100065.13;15684276;28;20037;-49
2024/01/01 15:32:42;;;;;;;0.75;0.75;;;;;;;8.29;67.25;100071.91;15658037;28;20114;-51
2024/01/01 15:40:19;;;;;;;0.00;0.00;;;;;;;8.53;66.92;100070.38;15683317;28;20115;-50
2024/01/01 15:47:54;;;;;;;0.00;0.00;;;;;;;8.31;67.87;100083.22;15663344;28;20561;-49
2024/01/01 15:55:28;;;;;;;0.00;0.00;;;;;;;8.00;67.96;100053.72;15681470;28;20099;-51
2024/01/01 16:03:03;;;;;;;0.00;0.00;;;;;;;8.03;68.58;100104.91;15660542;28;20079;-51
2024/01/01 16:10:37;;;;;;;0.00;0.00;;;;;;;7.74;70.37;100111.53;15655923;28;20037;-51
2024/01/01 16:18:11;;;;;;;0.00;0.00;;;;;;;7.50;71.69;100109.47;15653682;28;20056;-51
2024/01/01 16:25:47;;;;;;;0.10;0.10;;;;;;;7.24;73.09;100108.44;15675228;28;20048;-51
2024/01/01 16:33:21;;;;;;;0.00;0.00;;;;;;;7.35;73.41;100109.66;15670804;28;20045;-53
2024/01/01 16:40:56;;;;;;;0.30;0.30;;;;;;;7.19;74.33;100120.75;15654453;28;20037;-50
2024/01/01 16:48:29;;;;;;;0.32;0.32;;;;;;;7.22;75.13;100131.00;15637001;28;20136;-51
2024/01/01 16:56:04;;;;;;;;;;;;;;;7.16;75.56;100132.66;15659487;28;20025;-48
2024/01/01 17:03:40;;;;;;;0.20;0.20;;;;;;;7.16;74.97;100141.47;15684985;28;20471;-47
2024/01/01 17:11:16;;;;;;;0.00;0.00;;;;;;;7.09;74.97;100137.97;15668635;28;20094;-48
2024/01/01 17:18:49;;;;;;;0.00;0.00;;;;;;;7.13;75.57;100149.91;15685054;28;20077;-49
2024/01/01 17:26:24;;;;;;;2.72;1.80;;;;;;;7.49;73.51;100159.38;15681488;28;20045;-50
2024/01/01 17:33:57;;;;;;;0.00;0.00;;;;;;;7.54;74.12;100164.09;15678024;28;20128;-52
2024/01/01 17:41:33;;;;;;;0.10;0.10;;;;;;;7.78;73.11;100168.00;15677352;28;20167;-49
2024/01/01 17:49:07;;;;;;;0.00;0.00;;;;;;;7.48;75.41;100184.44;15672648;28;20044;-47
2024/01/01 17:56:44;;;;;;;0.03;0.03;;;;;;;7.09;77.33;100182.53;15658891;28;20037;-49
2024/01/01 18:04:17;;;;;;;0.00;0.00;;;;;;;7.43;76.68;100202.09;15659469;28;20060;-47
2024/01/01 18:11:52;;;;;;;0.10;0.10;;;;;;;6.87;79.93;100206.66;15677561;28;20049;-49
2024/01/01 18:19:25;;;;;;;0.08;0.08;;;;;;;7.14;78.68;100204.09;15676460;28;20049;-48
2024/01/01 18:27:00;;;;;;;1.20;1.10;;;;;;;6.63;79.51;100164.50;15676259;28;20041;-51
2024/01/01 18:34:34;;;;;;;0.00;0.00;;;;;;;7.01;78.93;100209.38;15675329;28;20490;-53
2024/01/01 18:42:09;;;;;;;0.00;0.00;;;;;;;6.95;79.39;100205.69;15656654;28;20060;-51
2024/01/01 18:49:42;;;;;;;0.00;0.00;;;;;;;6.74;80.56;100213.78;15652767;28;20083;-50
2024/01/01 18:57:17;;;;;;;0.00;0.00;;;;;;;6.95;79.13;100219.00;15668546;28;20090;-49
2024/01/01 19:04:50;;;;;;;0.00;0.00;;;;;;;6.61;80.33;100206.53;15675324;28;20150;-51
2024/01/01 19:12:30;;;;;;;0.30;0.30;;;;;;;6.97;78.73;100216.97;15673775;28;20409;-49
2024/01/01 19:20:04;;;;;;;0.00;0.00;;;;;;;6.89;78.90;100223.28;15674239;28;20157;-50
2024/01/01 19:27:39;;;;;;;0.00;0.00;;;;;;;6.32;80.13;100220.94;15674021;28;20401;-47
2024/01/01 19:35:12;;;;;;;0.10;0.10;;;;;;;6.23;80.93;100224.75;15673696;28;20068;-48
2024/01/01 19:42:47;;;;;;;0.00;0.00;;;;;;;6.30;80.70;100234.47;15663213;28;20423;-49
2024/01/01 19:50:20;;;;;;;0.00;0.00;;;;;;;6.17;81.28;100237.03;15680665;28;20052;-48
2024/01/01 19:57:55;;;;;;;0.00;0.00;;;;;;;6.05;81.98;100235.91;15683791;28;20072;-48
2024/01/01 20:05:28;;;;;;;0.00;0.00;;;;;;;6.60;80.18;100235.03;15681706;28;20041;-51
2024/01/01 20:13:04;;;;;;;0.10;0.10;;;;;;;6.13;81.88;100238.44;15670678;28;20037;-47
2024/01/01 20:20:38;;;;;;;0.00;0.00;;;;;;;6.29;81.43;100231.97;15685027;28;20045;-48
2024/01/01 20:28:13;;;;;;;5.18;1.45;;;;;;;6.23;81.90;100244.25;15683313;28;20119;-49
2024/01/01 20:35:46;;;;;;;0.00;0.00;;;;;;;6.16;82.23;100258.56;15679702;28;20501;-50
2024/01/01 20:43:21;;;;;;;;;;;;;;;6.33;82.16;100252.72;15677548;28;20077;-47
2024/01/01 20:50:55;;;;;;;0.00;0.00;;;;;;;6.11;81.76;100257.28;15674763;28;19920;-52
2024/01/01 20:58:31;;;;;;;0.03;0.03;;;;;;;6.29;81.61;100254.13;15678784;28;20083;-48
2024/01/01 21:06:06;;;;;;;1.00;0.45;;;;;;;6.41;80.39;100265.06;15675186;28;20502;-50
2024/01/01 21:13:41;;;;;;;0.80;0.63;;;;;;;6.52;79.27;100263.69;15673088;28;20067;-53
2024/01/01 21:21:24;;;;;;;0.00;0.00;;;;;;;6.25;80.42;100252.03;15673231;28;20585;-48
2024/01/01 21:28:59;;;;;;;0.00;0.00;;;;;;;6.42;80.17;100269.38;15675662;28;20184;-50
2024/01/01 21:36:33;;;;;;;0.00;0.00;;;;;;;6.53;78.66;100268.03;15674914;28;20045;-53
2024/01/01 21:44:07;;;;;;;0.85;0.60;;;;;;;6.58;78.48;100271.75;15671518;28;20064;-47
2024/01/01 21:51:41;;;;;;;0.00;0.00;;;;;;;6.38;79.25;100271.59;15673066;28;20045;-51
2024/01/01 21:59:16;;;;;;;0.00;0.00;;;;;;;6.38;78.98;100286.78;15676012;28;20053;-49
2024/01/01 22:06:49;;;;;;;0.00;0.00;;;;;;;6.28;79.42;100295.13;15656669;28;20152;-48
2024/01/01 22:14:24;;;;;;;0.00;0.00;;;;;;;6.32;79.12;100291.06;15674368;28;20049;-49
2024/01/01 22:21:58;;;;;;;0.00;0.00;;;;;;;6.26;79.60;100291.84;15673730;28;20044;-50
2024/01/01 22:29:33;;;;;;;0.10;0.10;;;;;;;6.04;79.35;100296.34;15672180;28;20128;-50
2024/01/01 22:37:06;;;;;;;0.00;0.00;;;;;;;6.16;80.01;100306.50;15671031;28;20041;-51
2024/01/01 22:44:41;;;;;;;0.10;0.10;;;;;;;6.36;78.35;100294.16;15668621;28;20091;-48
2024/01/01 22:52:15;;;;;;;0.00;0.00;;;;;;;6.69;77.01;100288.22;15683442;28;20061;-50
2024/01/01 22:59:49;;;;;;;0.00;0.00;;;;;;;6.50;77.75;100297.75;15670977;28;20491;-51
2024/01/01 23:07:22;;;;;;;0.00;0.00;;;;;;;6.61;76.31;100298.00;15668940;28;20140;-49
2024/01/01 23:14:57;;;;;;;0.00;0.00;;;;;;;6.27;77.60;100300.66;15672183;28;20041;-50
2024/01/01 23:22:30;;;;;;;0.00;0.00;;;;;;;6.67;76.62;100299.09;15682647;28;20045;-52
2024/01/01 23:30:07;;;;;;;0.00;0.00;;;;;;;6.46;77.23;100302.63;15684992;28;20116;-49
2024/01/01 23:37:40;;;;;;;0.00;0.00;;;;;;;6.09;78.19;100307.25;15679829;28;20041;-49
2024/01/01 23:45:15;;;;;;;0.15;0.15;;;;;;;6.09;78.71;100301.09;15656647;28;20039;-50
2024/01/01 23:52:49;;;;;;;0.00;0.00;;;;;;;6.37;77.77;100301.94;15678713;28;20061;-51
